Time;durP1;ratioP1;P1;durP2;ratioP2;P2;SDS_P1;SDS_P2;PMS_P1;PMS_P2;Temp;Humidity;BMP_temperature;BMP_pressure;BME280_temperature;BME280_humidity;BME280_pressure;Samples;Min_cycle;Max_cycle;Signal;HPM_P1;HPM_P2
2022/10/07 00:00:45;;;;;;;24.60;12.73;;;;;;;13.42;100.00;99752.84;5115309;28;20089;-94
2022/10/07 00:03:11;;;;;;;22.35;12.73;;;;;;;13.24;100.00;99740.75;5115625;28;20039;-93
2022/10/07 00:05:37;;;;;;;24.25;13.48;;;;;;;13.17;100.00;99734.69;5115371;28;20040;-95
2022/10/07 00:08:04;;;;;;;28.60;13.60;;;;;;;13.07;100.00;99739.31;5115887;27;20048;-94
2022/10/07 00:10:30;;;;;;;29.73;14.20;;;;;;;13.12;100.00;99744.59;5116678;27;20036;-96
2022/10/07 00:12:58;;;;;;;29.30;14.57;;;;;;;13.15;100.00;99740.03;5115044;28;20054;-96
2022/10/07 00:15:24;;;;;;;28.88;14.75;;;;;;;13.15;100.00;99736.50;5115046;28;20039;-94
2022/10/07 00:17:50;;;;;;;28.92;14.82;;;;;;;13.12;100.00;99744.59;5115380;28;20061;-94
2022/10/07 00:20:16;;;;;;;26.92;14.02;;;;;;;13.12;100.00;99748.13;5115015;28;20100;-96
2022/10/07 00:22:42;;;;;;;32.10;15.00;;;;;;;13.24;100.00;99744.28;5115427;28;20126;-95
2022/10/07 00:25:10;;;;;;;31.25;15.98;;;;;;;13.29;100.00;99714.84;5116041;28;20053;-95
2022/10/07 00:27:36;;;;;;;28.90;15.02;;;;;;;13.29;100.00;99714.84;5115105;28;20081;-96
2022/10/07 00:30:02;;;;;;;30.00;14.85;;;;;;;13.46;100.00;99723.34;5115385;28;20467;-95
2022/10/07 00:32:27;;;;;;;29.33;14.57;;;;;;;13.41;100.00;99709.22;5115573;28;20054;-94
2022/10/07 00:34:53;;;;;;;30.00;14.20;;;;;;;13.51;100.00;99720.56;5114876;28;20126;-95
2022/10/07 00:37:19;;;;;;;27.15;14.48;;;;;;;13.43;100.00;99722.56;5114635;28;20044;-95
2022/10/07 00:39:45;;;;;;;26.00;13.45;;;;;;;13.35;100.00;99723.59;5114768;28;20048;-94
2022/10/07 00:42:13;;;;;;;26.63;14.00;;;;;;;13.27;100.00;99725.56;5114384;28;20070;-93
2022/10/07 00:44:42;;;;;;;25.58;13.13;;;;;;;13.18;100.00;99717.72;5115036;28;20040;-95
2022/10/07 00:47:18;;;;;;;27.50;15.32;;;;;;;13.32;100.00;99744.19;5115975;28;20051;-95
2022/10/07 00:49:49;;;;;;;24.55;14.05;;;;;;;13.11;100.00;99708.09;5115187;28;20046;-95
2022/10/07 00:52:19;;;;;;;27.65;14.82;;;;;;;13.14;100.00;99730.28;5114700;28;20032;-95
2022/10/07 00:54:46;;;;;;;27.30;14.02;;;;;;;13.09;100.00;99739.31;5114735;28;20043;-95
2022/10/07 00:57:13;;;;;;;25.00;14.27;;;;;;;13.10;100.00;99727.72;5114525;28;20126;-95
2022/10/07 00:59:40;;;;;;;26.10;14.13;;;;;;;13.15;100.00;99737.38;5114494;28;20396;-94
2022/10/07 01:02:06;;;;;;;28.75;14.65;;;;;;;13.06;100.00;99728.69;5114509;28;20124;-94
2022/10/07 01:04:32;;;;;;;25.48;13.57;;;;;;;13.11;100.00;99726.78;5130595;28;20051;-95
2022/10/07 01:06:58;;;;;;;23.48;12.50;;;;;;;12.97;100.00;99719.09;5115656;28;20040;-96
2022/10/07 01:09:24;;;;;;;25.85;13.70;;;;;;;12.86;100.00;99705.06;5114973;28;20469;-94
2022/10/07 01:11:57;;;;;;;26.05;13.45;;;;;;;12.79;100.00;99704.31;5115258;28;20480;-95
2022/10/07 01:14:34;;;;;;;26.08;12.82;;;;;;;12.76;100.00;99696.41;5115045;28;20092;-93
2022/10/07 01:17:05;;;;;;;19.30;12.05;;;;;;;12.68;100.00;99696.53;5114802;28;20040;-95
2022/10/07 01:19:55;;;;;;;23.98;12.73;;;;;;;12.63;100.00;99702.91;5121742;28;20054;-93
2022/10/07 01:22:33;;;;;;;23.58;12.68;;;;;;;12.57;100.00;99681.69;5135250;28;20399;-95
2022/10/07 01:25:14;;;;;;;24.35;13.40;;;;;;;12.62;100.00;99693.13;5122611;28;20154;-95
2022/10/07 01:27:48;;;;;;;23.15;13.15;;;;;;;12.62;100.00;99701.13;5115462;28;20423;-96
2022/10/07 01:30:15;;;;;;;27.95;14.10;;;;;;;12.50;100.00;99680.94;5118836;28;20047;-96
2022/10/07 01:32:46;;;;;;;28.38;14.48;;;;;;;12.60;100.00;99693.19;5111934;28;20393;-95
2022/10/07 01:35:17;;;;;;;27.45;14.07;;;;;;;12.55;100.00;99684.38;5118148;28;20051;-94
2022/10/07 01:37:47;;;;;;;28.85;14.18;;;;;;;12.59;100.00;99701.22;5118240;28;20378;-94
2022/10/07 01:40:17;;;;;;;24.60;13.40;;;;;;;12.57;100.00;99697.69;5117761;28;20047;-95
2022/10/07 01:42:45;;;;;;;27.52;13.63;;;;;;;12.42;100.00;99688.19;5118017;28;20048;-95
2022/10/07 01:45:19;;;;;;;24.85;13.70;;;;;;;12.32;100.00;99676.84;5117884;28;20139;-94
2022/10/07 01:47:45;;;;;;;26.63;13.13;;;;;;;12.33;100.00;99675.94;5118119;28;20043;-95
2022/10/07 01:50:12;;;;;;;28.38;14.18;;;;;;;12.24;100.00;99662.78;5118228;28;20587;-95
2022/10/07 01:53:01;;;;;;;23.13;13.88;;;;;;;12.24;100.00;99678.78;5118107;28;20039;-95
2022/10/07 01:55:41;;;;;;;27.63;13.45;;;;;;;12.17;100.00;99664.69;5117372;28;20050;-95
2022/10/07 01:58:14;;;;;;;;;;;;;;;12.24;100.00;99689.44;5118343;28;20044;-96
2022/10/07 02:00:47;;;;;;;25.35;12.82;;;;;;;12.12;100.00;99672.78;5117683;28;19926;-96
2022/10/07 02:03:41;;;;;;;23.02;12.88;;;;;;;12.08;100.00;99678.19;5117664;28;20044;-93
2022/10/07 02:06:16;;;;;;;25.08;13.32;;;;;;;11.98;100.00;99660.59;5117171;28;20400;-95
2022/10/07 02:08:45;;;;;;;25.45;13.60;;;;;;;12.04;100.00;99677.38;5117540;28;20044;-94
2022/10/07 02:11:14;;;;;;;27.48;14.55;;;;;;;11.91;100.00;99658.06;5117753;28;20144;-94
2022/10/07 02:13:54;;;;;;;25.80;13.32;;;;;;;11.88;100.00;99654.56;5117766;28;20039;-95
2022/10/07 02:16:25;;;;;;;26.42;14.98;;;;;;;11.81;100.00;99652.88;5117292;28;20067;-95
2022/10/07 02:18:52;;;;;;;30.00;14.60;;;;;;;11.91;100.00;99667.84;5117285;27;20123;-94
2022/10/07 02:21:24;;;;;;;27.58;14.40;;;;;;;11.86;100.00;99654.56;5117173;27;20044;-94
2022/10/07 02:23:53;;;;;;;35.35;15.85;;;;;;;11.93;100.00;99660.69;5118188;28;20043;-96
2022/10/07 02:26:20;;;;;;;35.00;15.00;;;;;;;11.85;100.00;99646.59;5117810;28;20040;-95
2022/10/07 02:28:52;;;;;;;32.58;15.68;;;;;;;11.79;100.00;99644.91;5118397;28;20409;-95
2022/10/07 02:31:22;;;;;;;30.55;15.32;;;;;;;11.82;100.00;99659.94;5117579;28;20097;-94
2022/10/07 02:33:52;;;;;;;35.53;16.40;;;;;;;11.72;100.00;99638.81;5117343;28;20047;-95
2022/10/07 02:36:24;;;;;;;34.17;16.17;;;;;;;11.92;100.00;99662.47;5117870;28;20051;-94
2022/10/07 02:38:50;;;;;;;33.58;16.27;;;;;;;11.92;100.00;99666.91;5117172;28;20039;-95
2022/10/07 02:41:30;;;;;;;31.08;15.15;;;;;;;11.88;100.00;99667.88;5117107;28;20557;-95
2022/10/07 02:44:09;;;;;;;30.27;15.85;;;;;;;11.75;100.00;99642.31;5117094;28;20524;-95
2022/10/07 02:46:41;;;;;;;31.35;16.95;;;;;;;11.93;100.00;99658.03;5119307;28;20047;-96
2022/10/07 02:49:11;;;;;;;34.05;16.77;;;;;;;11.82;100.00;99638.63;5119311;28;20112;-96
2022/10/07 02:51:42;;;;;;;38.25;17.98;;;;;;;11.79;100.00;99634.25;5119334;28;20377;-94
2022/10/07 02:54:07;;;;;;;35.78;17.20;;;;;;;11.83;100.00;99625.28;5120653;28;20071;-95
2022/10/07 02:56:36;;;;;;;40.45;19.48;;;;;;;11.90;100.00;99642.06;5118323;28;20396;-94
2022/10/07 02:59:07;;;;;;;38.70;19.10;;;;;;;11.83;100.00;99629.75;5117462;28;20047;-94
2022/10/07 03:01:39;;;;;;;42.60;18.98;;;;;;;11.86;100.00;99627.91;5117434;28;20043;-94
2022/10/07 03:04:06;;;;;;;39.55;19.55;;;;;;;11.91;100.00;99631.41;5096933;28;20496;-94
2022/10/07 03:06:34;;;;;;;37.92;17.67;;;;;;;11.90;100.00;99637.63;5097288;28;20401;-95
2022/10/07 03:09:01;;;;;;;38.92;18.00;;;;;;;11.78;100.00;99629.84;5096910;28;20143;-96
2022/10/07 03:11:27;;;;;;;34.15;16.63;;;;;;;11.75;100.00;99647.66;5107708;28;20036;-95
2022/10/07 03:13:53;;;;;;;31.23;16.35;;;;;;;11.61;100.00;99638.13;5118793;28;20031;-95
2022/10/07 03:16:20;;;;;;;40.38;19.15;;;;;;;11.66;100.00;99630.91;5120823;28;20039;-95
2022/10/07 03:18:46;;;;;;;41.28;17.45;;;;;;;11.78;100.00;99634.28;5120038;28;20401;-94
2022/10/07 03:21:12;;;;;;;37.42;18.00;;;;;;;11.66;100.00;99627.38;5119161;28;20040;-94
2022/10/07 03:23:38;;;;;;;37.33;17.55;;;;;;;11.74;100.00;99640.59;5120015;28;20036;-93
2022/10/07 03:26:04;;;;;;;42.53;19.08;;;;;;;11.60;100.00;99620.41;5118979;28;20065;-95
2022/10/07 03:28:34;;;;;;;40.28;17.58;;;;;;;11.62;100.00;99623.00;5119574;28;20496;-95
2022/10/07 03:31:04;;;;;;;37.72;18.17;;;;;;;11.58;100.00;99624.88;5119016;28;20040;-95
2022/10/07 03:33:31;;;;;;;39.60;18.10;;;;;;;11.59;100.00;99645.25;5118169;28;20561;-96
2022/10/07 03:35:57;;;;;;;36.33;17.67;;;;;;;11.54;100.00;99636.47;5118643;28;20059;-94
2022/10/07 03:38:23;;;;;;;33.05;16.98;;;;;;;11.45;100.00;99634.84;5119048;28;20047;-95
2022/10/07 03:40:49;;;;;;;34.38;16.27;;;;;;;11.43;100.00;99619.81;5121523;28;20083;-96
2022/10/07 03:43:15;;;;;;;36.58;17.10;;;;;;;11.45;100.00;99624.19;5119986;28;20047;-96
2022/10/07 03:45:49;;;;;;;39.65;18.80;;;;;;;11.43;100.00;99617.16;5122893;28;20054;-95
2022/10/07 03:48:15;;;;;;;35.65;18.13;;;;;;;11.46;100.00;99609.97;5120443;28;20058;-95
2022/10/07 03:50:47;;;;;;;41.35;19.10;;;;;;;11.45;100.00;99612.66;5120679;28;20048;-95
2022/10/07 03:53:13;;;;;;;44.47;20.13;;;;;;;11.40;100.00;99610.06;5121893;28;20112;-96
2022/10/07 03:55:40;;;;;;;39.67;19.10;;;;;;;11.50;100.00;99614.34;5121611;28;20047;-96
2022/10/07 03:58:06;;;;;;;43.55;20.52;;;;;;;11.51;100.00;99618.78;5122413;28;20067;-95
2022/10/07 04:00:33;;;;;;;49.55;21.50;;;;;;;11.62;100.00;99642.53;5123436;28;20054;-95
2022/10/07 04:02:59;;;;;;;49.38;20.83;;;;;;;11.49;100.00;99617.00;5122566;28;20040;-94
2022/10/07 04:05:25;;;;;;;40.80;19.15;;;;;;;11.41;100.00;99617.16;5124899;28;20054;-94
2022/10/07 04:07:53;;;;;;;43.78;19.33;;;;;;;11.48;100.00;99613.47;5124016;28;20055;-96
2022/10/07 04:10:20;;;;;;;39.30;17.80;;;;;;;11.44;100.00;99617.09;5124991;28;20047;-95
2022/10/07 04:12:47;;;;;;;39.40;18.85;;;;;;;11.45;100.00;99639.28;5124609;28;20040;-94
2022/10/07 04:15:13;;;;;;;41.75;18.10;;;;;;;11.26;100.00;99612.09;5126230;28;20039;-94
2022/10/07 04:17:40;;;;;;;37.42;17.75;;;;;;;11.24;100.00;99619.22;5124642;28;20040;-95
2022/10/07 04:20:08;;;;;;;38.00;17.83;;;;;;;11.20;100.00;99621.06;5124222;28;20043;-96
2022/10/07 04:22:34;;;;;;;36.95;18.80;;;;;;;11.08;100.00;99613.25;5125142;28;20059;-96
2022/10/07 04:38:27;;;;;;;37.50;17.45;;;;;;;10.83;100.00;99618.94;6202828;22;1554281;-96
2022/10/07 04:40:53;;;;;;;42.53;17.92;;;;;;;10.83;100.00;99608.31;6269271;23;20043;-93
2022/10/07 04:43:22;;;;;;;36.75;17.85;;;;;;;10.83;100.00;99605.66;6268101;23;20453;-95
2022/10/07 04:45:52;;;;;;;40.20;18.27;;;;;;;10.87;100.00;99618.00;6269637;23;20020;-95
2022/10/07 04:48:22;;;;;;;39.95;16.92;;;;;;;10.80;100.00;99603.03;6268309;23;20030;-95
2022/10/07 04:50:50;;;;;;;37.22;17.55;;;;;;;10.78;100.00;99609.25;6268507;23;20072;-95
2022/10/07 04:53:17;;;;;;;35.90;16.30;;;;;;;10.77;100.00;99623.47;6238846;23;20020;-95
2022/10/07 04:55:47;;;;;;;33.60;16.23;;;;;;;10.67;100.00;99601.47;6239107;23;20048;-95
2022/10/07 04:58:14;;;;;;;42.00;17.55;;;;;;;10.66;100.00;99615.66;6243135;23;20088;-95
2022/10/07 05:00:43;;;;;;;45.85;20.90;;;;;;;10.66;100.00;99603.22;6242605;23;20020;-95
2022/10/07 05:03:11;;;;;;;41.97;18.60;;;;;;;10.67;100.00;99612.97;6240676;23;20017;-95
2022/10/07 05:05:41;;;;;;;43.55;19.90;;;;;;;10.76;100.00;99611.09;6234400;23;20016;-94
2022/10/07 05:08:07;;;;;;;40.78;18.73;;;;;;;10.88;100.00;99606.44;6237151;23;20047;-96
2022/10/07 05:10:35;;;;;;;39.53;19.00;;;;;;;10.85;100.00;99606.50;6237071;23;20020;-96
2022/10/07 05:13:04;;;;;;;86.40;19.67;;;;;;;10.89;100.00;99613.53;6236159;23;20020;-96
2022/10/07 05:15:30;;;;;;;35.95;17.08;;;;;;;10.84;100.00;99604.75;6237640;23;20035;-94
2022/10/07 05:17:56;;;;;;;43.30;17.65;;;;;;;10.92;100.00;99627.72;6236143;23;20107;-95
2022/10/07 05:20:22;;;;;;;40.75;18.00;;;;;;;10.77;100.00;99616.38;6237566;23;20024;-96
2022/10/07 05:22:48;;;;;;;94.05;20.33;;;;;;;10.80;100.00;99607.47;6237606;23;20016;-93
2022/10/07 05:25:14;;;;;;;188.25;22.55;;;;;;;10.82;100.00;99614.53;6239492;23;20325;-96
2022/10/07 05:27:52;;;;;;;275.65;28.90;;;;;;;10.86;100.00;99628.66;6242049;23;20040;-96
2022/10/07 05:30:20;;;;;;;174.23;22.17;;;;;;;10.86;100.00;99626.00;6238505;23;20043;-94
2022/10/07 05:32:46;;;;;;;186.50;24.10;;;;;;;10.84;100.00;99610.09;6233927;23;20024;-95
2022/10/07 05:35:13;;;;;;;177.32;24.45;;;;;;;10.95;100.00;99607.25;6236365;23;20016;-95
2022/10/07 05:37:39;;;;;;;85.13;23.80;;;;;;;10.98;100.00;99601.00;6235125;23;20068;-93
2022/10/07 05:40:05;;;;;;;215.13;28.08;;;;;;;10.90;100.00;99599.31;6227807;23;20024;-96
2022/10/07 05:42:31;;;;;;;189.85;28.35;;;;;;;10.93;100.00;99606.41;6227826;23;20059;-92
2022/10/07 05:44:59;;;;;;;312.52;34.30;;;;;;;10.91;100.00;99594.91;6231782;23;20021;-95
2022/10/07 05:47:27;;;;;;;254.20;29.45;;;;;;;11.06;100.00;99631.03;6232271;23;20017;-96
2022/10/07 05:49:57;;;;;;;240.48;27.88;;;;;;;10.88;100.00;99597.59;6233697;23;20020;-94
2022/10/07 05:52:23;;;;;;;377.25;33.33;;;;;;;11.09;100.00;99634.53;6232470;23;20380;-94
2022/10/07 05:54:50;;;;;;;193.02;30.33;;;;;;;10.96;100.00;99608.13;6230471;23;20045;-95
2022/10/07 05:57:16;;;;;;;285.30;29.50;;;;;;;10.88;100.00;99603.78;6231152;23;20020;-93
2022/10/07 06:04:55;;;;;;;304.13;35.80;;;;;;;11.08;100.00;99602.59;6212878;22;20020;-95
2022/10/07 06:27:02;;;;;;;53.47;21.52;;;;;;;12.10;100.00;99642.59;5145307;27;20381;-96
2022/10/07 06:29:29;;;;;;;49.22;21.20;;;;;;;12.22;100.00;99640.59;5139415;28;20040;-96
2022/10/07 06:31:56;;;;;;;52.60;22.55;;;;;;;12.15;100.00;99614.97;5144878;27;20047;-96
2022/10/07 06:34:24;;;;;;;64.25;21.08;;;;;;;12.17;100.00;99611.34;5151599;27;20097;-96
2022/10/07 06:36:52;;;;;;;74.43;21.13;;;;;;;12.09;100.00;99623.97;5147951;27;20107;-95
2022/10/07 06:39:22;;;;;;;53.13;19.55;;;;;;;12.20;100.00;99624.63;5143447;27;20072;-96
2022/10/07 06:41:53;;;;;;;56.15;20.25;;;;;;;12.20;100.00;99618.41;5139768;27;20400;-96
2022/10/07 06:44:22;;;;;;;95.57;22.25;;;;;;;12.16;100.00;99608.72;5151523;27;20043;-96
2022/10/07 06:46:54;;;;;;;156.02;24.55;;;;;;;12.18;100.00;99622.91;5143895;27;20081;-96
2022/10/07 06:49:23;;;;;;;48.28;20.25;;;;;;;12.31;100.00;99617.28;5147916;27;20031;-96
2022/10/07 06:51:50;;;;;;;65.97;22.23;;;;;;;12.30;100.00;99622.66;5144757;27;20046;-96
2022/10/07 06:54:16;;;;;;;50.42;21.55;;;;;;;12.33;100.00;99627.91;5145365;27;20047;-96
2022/10/07 06:56:42;;;;;;;47.13;21.73;;;;;;;12.39;100.00;99613.59;5143362;27;20054;-96
2022/10/07 06:59:10;;;;;;;53.55;22.80;;;;;;;12.66;100.00;99607.63;5142014;27;20043;-96
2022/10/07 07:01:36;;;;;;;45.38;22.05;;;;;;;12.91;100.00;99607.09;5140063;27;20035;-96
2022/10/07 07:04:02;;;;;;;45.83;21.48;;;;;;;13.18;100.00;99610.91;5138415;28;20100;-95
2022/10/07 07:06:29;;;;;;;42.58;22.15;;;;;;;13.37;100.00;99622.03;5138786;27;20074;-96
2022/10/07 07:08:59;;;;;;;47.88;22.98;;;;;;;13.42;100.00;99616.59;5138224;27;20051;-94
2022/10/07 07:14:33;;;;;;;42.25;19.95;;;;;;;13.22;100.00;99617.91;5159800;27;20379;-96
2022/10/07 07:16:59;;;;;;;50.95;23.83;;;;;;;13.42;100.00;99641.50;5142320;27;20055;-95
2022/10/07 07:19:25;;;;;;;53.28;22.40;;;;;;;13.49;100.00;99618.22;5139642;27;20397;-95
2022/10/07 07:21:51;;;;;;;43.97;20.30;;;;;;;13.68;100.00;99613.25;5141183;28;20073;-96
2022/10/07 07:24:18;;;;;;;48.33;22.60;;;;;;;13.99;100.00;99640.06;5139310;27;20043;-94
2022/10/07 07:26:44;;;;;;;47.88;22.75;;;;;;;13.96;100.00;99611.56;5139163;28;20043;-94
2022/10/07 07:29:13;;;;;;;45.45;22.83;;;;;;;14.08;100.00;99612.19;5137411;27;20050;-96
2022/10/07 07:31:40;;;;;;;49.95;22.20;;;;;;;14.27;100.00;99624.13;5137309;27;20050;-93
2022/10/07 07:34:10;;;;;;;46.53;23.35;;;;;;;14.51;100.00;99632.38;5138033;27;20035;-93
2022/10/07 07:36:37;;;;;;;44.55;21.70;;;;;;;14.48;100.00;99617.25;5142065;27;20051;-94
2022/10/07 07:39:06;;;;;;;45.88;22.67;;;;;;;14.62;99.51;99618.69;5139710;27;20054;-95
2022/10/07 07:41:34;;;;;;;51.50;22.77;;;;;;;14.76;99.49;99616.47;5138572;27;20047;-94
2022/10/07 07:44:03;;;;;;;43.70;21.90;;;;;;;15.07;99.68;99644.97;5140152;27;20039;-95
2022/10/07 07:46:33;;;;;;;42.90;21.95;;;;;;;15.19;98.99;99615.97;5138935;28;20043;-95
2022/10/07 07:49:02;;;;;;;46.15;22.13;;;;;;;15.49;97.23;99615.03;5138459;27;20068;-95
2022/10/07 07:51:28;;;;;;;;;;;;;;;15.85;95.13;99645.09;5138973;27;20134;-95
2022/10/07 07:53:54;;;;;;;42.42;20.95;;;;;;;15.94;94.08;99612.59;5137001;27;20340;-95
2022/10/07 07:56:20;;;;;;;45.63;22.90;;;;;;;15.85;92.79;99620.94;5140927;27;20063;-94
2022/10/07 07:58:52;;;;;;;44.65;21.52;;;;;;;15.73;93.61;99610.66;5139176;27;20043;-94
2022/10/07 08:01:21;;;;;;;45.22;22.20;;;;;;;15.84;95.22;99610.31;5129290;28;20036;-93
2022/10/07 08:03:51;;;;;;;39.28;21.75;;;;;;;15.61;94.29;99604.78;5135275;27;20054;-95
2022/10/07 08:06:20;;;;;;;45.92;24.55;;;;;;;15.25;97.30;99612.25;5137180;27;20075;-93
2022/10/07 08:08:46;;;;;;;46.58;23.58;;;;;;;15.35;99.13;99627.09;5137724;27;20040;-95
2022/10/07 08:11:14;;;;;;;43.33;21.80;;;;;;;15.25;98.37;99612.25;5138362;27;20050;-94
2022/10/07 08:13:40;;;;;;;43.58;22.20;;;;;;;15.06;98.76;99622.66;5135342;28;20182;-95
2022/10/07 08:16:07;;;;;;;45.65;22.73;;;;;;;15.10;98.80;99615.41;5132878;27;20039;-94
2022/10/07 08:18:33;;;;;;;40.72;21.88;;;;;;;15.13;99.41;99612.63;5132723;27;20051;-95
2022/10/07 08:21:01;;;;;;;44.20;23.17;;;;;;;15.26;98.86;99616.66;5132331;28;20118;-95
2022/10/07 08:23:29;;;;;;;43.45;22.90;;;;;;;15.49;98.52;99620.41;5131716;27;20040;-94
2022/10/07 08:25:55;;;;;;;47.63;23.38;;;;;;;15.68;96.59;99609.91;5118478;28;20104;-95
2022/10/07 08:28:22;;;;;;;44.25;23.05;;;;;;;15.59;94.05;99616.47;5118928;28;20497;-94
2022/10/07 08:30:49;;;;;;;47.10;23.67;;;;;;;15.85;93.75;99630.81;5119204;28;20043;-95
2022/10/07 08:33:15;;;;;;;48.53;24.15;;;;;;;15.96;93.54;99629.53;5118810;28;20089;-93
2022/10/07 08:35:42;;;;;;;46.42;23.85;;;;;;;15.91;94.25;99607.31;5119048;28;20040;-94
2022/10/07 08:38:08;;;;;;;54.25;24.73;;;;;;;16.11;91.66;99619.16;5118575;28;20075;-94
2022/10/07 08:40:36;;;;;;;46.70;23.92;;;;;;;16.10;91.66;99607.56;5118242;28;20050;-95
2022/10/07 08:43:02;;;;;;;45.33;23.13;;;;;;;16.04;91.50;99601.53;5118329;28;20058;-94
2022/10/07 08:45:30;;;;;;;48.83;22.88;;;;;;;16.14;91.23;99586.88;5118361;28;20035;-93
2022/10/07 08:48:01;;;;;;;46.97;22.80;;;;;;;16.49;90.08;99616.88;5117840;28;20075;-94
2022/10/07 08:50:33;;;;;;;50.45;24.98;;;;;;;16.55;89.67;99597.84;5120391;27;20044;-92
2022/10/07 08:53:02;;;;;;;62.85;27.45;;;;;;;16.33;89.44;99605.81;5122775;27;20118;-92
2022/10/07 08:55:35;;;;;;;49.70;24.83;;;;;;;16.06;92.01;99587.13;5121719;27;20055;-94
2022/10/07 08:58:29;;;;;;;55.17;26.58;;;;;;;16.12;92.34;99599.47;5118937;28;20043;-96
2022/10/07 09:01:02;;;;;;;50.85;26.00;;;;;;;16.18;91.58;99593.88;5117003;28;20046;-95
2022/10/07 09:03:42;;;;;;;53.10;26.77;;;;;;;16.18;91.03;99586.69;5119400;28;20032;-94
2022/10/07 09:06:14;;;;;;;48.60;23.08;;;;;;;16.21;90.89;99596.44;5118760;28;20082;-94
2022/10/07 09:08:45;;;;;;;44.97;22.95;;;;;;;16.18;91.59;99589.38;5119964;28;20042;-93
2022/10/07 09:11:19;;;;;;;57.17;23.45;;;;;;;16.19;91.67;99583.06;5125944;27;20039;-94
2022/10/07 09:13:51;;;;;;;50.47;22.48;;;;;;;16.16;91.60;99577.81;5117822;28;20039;-93
2022/10/07 09:16:22;;;;;;;46.85;24.67;;;;;;;16.05;91.39;99576.44;5120451;28;20051;-93
2022/10/07 09:18:52;;;;;;;49.75;24.73;;;;;;;16.04;92.84;99580.94;5114747;28;20096;-93
2022/10/07 09:21:22;;;;;;;54.42;24.70;;;;;;;16.14;92.15;99576.13;5121713;28;20123;-92
2022/10/07 09:23:53;;;;;;;53.80;26.65;;;;;;;16.17;91.73;99586.75;5119422;28;20040;-92
2022/10/07 09:26:19;;;;;;;52.58;25.80;;;;;;;16.34;92.95;99605.78;5120684;28;20121;-94
2022/10/07 09:28:46;;;;;;;57.53;25.20;;;;;;;16.36;91.19;99585.13;5120904;28;20503;-95
2022/10/07 09:31:15;;;;;;;64.43;27.27;;;;;;;16.23;93.38;99575.78;5114623;28;20043;-92
2022/10/07 09:33:42;;;;;;;60.40;26.83;;;;;;;16.37;93.05;99572.56;5120368;28;20032;-93
2022/10/07 09:36:11;;;;;;;58.17;26.95;;;;;;;16.59;91.58;99581.56;5116702;28;20283;-94
2022/10/07 09:38:38;;;;;;;;;;;;;;;16.73;90.60;99597.13;5121208;28;20043;-92
2022/10/07 09:41:18;;;;;;;50.15;24.13;;;;;;;16.78;90.60;99575.47;5119544;28;20265;-94
2022/10/07 09:44:24;;;;;;;52.35;24.25;;;;;;;16.94;90.85;99573.97;5120964;28;20044;-94
2022/10/07 09:46:52;;;;;;;51.45;25.33;;;;;;;17.02;89.77;99550.34;5115546;27;20070;-93
2022/10/07 09:49:40;;;;;;;49.03;23.65;;;;;;;17.22;88.94;99551.34;5121224;28;20047;-94
2022/10/07 09:52:14;;;;;;;58.72;25.45;;;;;;;17.39;87.37;99567.63;5109430;28;20047;-93
2022/10/07 09:54:49;;;;;;;52.35;24.15;;;;;;;17.34;86.48;99555.31;5110748;28;20096;-92
2022/10/07 09:57:32;;;;;;;50.97;23.08;;;;;;;17.44;86.40;99567.44;5120215;28;20035;-93
2022/10/07 10:00:23;;;;;;;52.28;24.63;;;;;;;17.52;86.97;99567.09;5108435;28;20040;-94
2022/10/07 10:02:52;;;;;;;53.22;25.95;;;;;;;17.52;85.38;99553.63;5116381;28;20438;-94
2022/10/07 10:05:24;;;;;;;63.17;27.25;;;;;;;17.57;85.99;99563.28;5119458;28;20051;-94
2022/10/07 10:07:56;;;;;;;56.78;24.83;;;;;;;17.74;85.81;99553.56;5130566;27;20047;-94
2022/10/07 10:10:25;;;;;;;47.45;23.50;;;;;;;17.99;85.06;99548.03;5119549;28;20036;-94
2022/10/07 10:12:53;;;;;;;49.63;23.45;;;;;;;18.23;82.29;99544.22;5107795;28;20093;-94
2022/10/07 10:15:28;;;;;;;48.55;24.75;;;;;;;18.34;81.65;99534.75;5119884;28;20496;-94
2022/10/07 10:17:56;;;;;;;56.85;24.95;;;;;;;18.62;81.06;99548.66;5131286;27;20031;-95
2022/10/07 10:20:29;;;;;;;58.87;25.17;;;;;;;18.65;80.71;99526.09;5127558;27;20050;-94
2022/10/07 10:23:01;;;;;;;57.83;26.50;;;;;;;18.74;80.02;99514.91;5127497;28;20472;-96
2022/10/07 10:29:16;;;;;;;58.60;26.27;;;;;;;19.12;78.53;99532.84;5116308;27;20385;-95
2022/10/07 10:31:58;;;;;;;55.88;25.55;;;;;;;19.11;78.06;99499.63;5115657;28;20044;-93
2022/10/07 10:34:37;;;;;;;58.15;26.38;;;;;;;19.31;77.43;99514.78;5116328;28;20080;-94
2022/10/07 10:37:09;;;;;;;48.75;25.05;;;;;;;19.29;76.15;99497.81;5116051;28;20035;-95
2022/10/07 10:39:50;;;;;;;52.50;25.42;;;;;;;19.44;76.23;99515.91;5115992;28;20058;-95
2022/10/07 10:42:25;;;;;;;47.80;24.95;;;;;;;19.58;75.16;99511.59;5115564;28;20048;-94
2022/10/07 10:45:09;;;;;;;47.92;24.73;;;;;;;19.60;75.72;99505.16;5114568;28;20048;-95
2022/10/07 10:47:50;;;;;;;43.85;24.02;;;;;;;19.66;76.55;99483.28;5115253;28;20054;-94
2022/10/07 10:50:23;;;;;;;43.03;23.08;;;;;;;19.88;74.86;99507.31;5112542;28;20054;-94
2022/10/07 10:53:00;;;;;;;44.22;23.50;;;;;;;19.84;73.58;99494.06;5114496;28;20044;-94
2022/10/07 10:55:39;;;;;;;44.40;22.17;;;;;;;19.88;74.91;99472.22;5115953;28;20044;-96
2022/10/07 10:58:20;;;;;;;45.33;24.40;;;;;;;20.04;73.38;99484.91;5102291;28;20028;-95
2022/10/07 11:00:57;;;;;;;43.33;23.45;;;;;;;19.91;71.88;99476.59;5111925;28;20078;-96
2022/10/07 11:03:43;;;;;;;47.90;24.05;;;;;;;20.03;72.26;99481.31;5109827;28;20047;-96
2022/10/07 11:06:12;;;;;;;41.42;20.38;;;;;;;20.04;73.72;99460.63;5115265;28;20488;-95
2022/10/07 11:08:40;;;;;;;47.55;23.08;;;;;;;20.16;73.13;99462.63;5113578;28;20485;-93
2022/10/07 11:11:10;;;;;;;46.70;22.05;;;;;;;20.25;71.81;99451.28;5114520;28;20036;-95
2022/10/07 11:13:42;;;;;;;39.92;20.05;;;;;;;20.40;71.20;99460.38;5113943;28;20485;-95
2022/10/07 11:16:16;;;;;;;43.42;22.15;;;;;;;20.42;71.31;99444.09;5113293;28;20525;-94
2022/10/07 11:18:46;;;;;;;39.63;20.38;;;;;;;20.47;70.19;99428.47;5116441;28;20055;-93
2022/10/07 11:21:19;;;;;;;38.58;19.75;;;;;;;20.56;69.40;99430.69;5117200;28;20823;-93
2022/10/07 11:23:52;;;;;;;30.83;17.60;;;;;;;20.77;68.79;99452.03;5114408;28;20036;-93
2022/10/07 11:26:25;;;;;;;32.28;18.67;;;;;;;20.73;67.83;99443.22;5114768;28;20040;-95
2022/10/07 11:28:53;;;;;;;32.35;18.52;;;;;;;20.81;69.18;99440.06;5113650;28;20047;-94
2022/10/07 11:31:31;;;;;;;27.55;17.30;;;;;;;20.93;67.61;99447.47;5111194;28;20040;-94
2022/10/07 11:34:12;;;;;;;26.30;16.00;;;;;;;20.94;66.87;99432.97;5106365;28;20123;-95
2022/10/07 11:36:46;;;;;;;25.98;15.63;;;;;;;20.95;66.79;99429.34;5115363;28;20035;-95
2022/10/07 11:39:12;;;;;;;30.08;16.65;;;;;;;20.96;65.12;99413.97;5096800;28;20058;-94
2022/10/07 11:41:47;;;;;;;25.80;15.88;;;;;;;21.14;65.59;99423.69;5101369;28;20040;-95
2022/10/07 11:44:18;;;;;;;24.75;13.80;;;;;;;21.19;63.89;99404.47;5101695;28;20098;-94
2022/10/07 11:46:47;;;;;;;29.02;15.73;;;;;;;21.09;63.13;99388.81;5101147;28;20054;-95
2022/10/07 11:49:18;;;;;;;;;;;;;;;21.33;63.72;99420.75;5102245;28;20044;-94
2022/10/07 11:51:58;;;;;;;24.13;14.10;;;;;;;21.33;63.10;99399.97;5100833;28;20014;-95
2022/10/07 11:54:27;;;;;;;25.77;14.55;;;;;;;21.39;63.84;99403.28;5099997;28;20109;-95
2022/10/07 11:56:57;;;;;;;30.30;14.35;;;;;;;21.30;63.29;99388.47;5100295;28;20042;-94
2022/10/07 11:59:32;;;;;;;22.42;14.27;;;;;;;21.34;63.20;99384.63;5097709;28;20040;-92
2022/10/07 12:02:05;;;;;;;22.60;14.10;;;;;;;21.46;62.91;99400.09;5110673;28;20051;-96
2022/10/07 12:04:40;;;;;;;28.75;16.83;;;;;;;21.45;62.12;99392.97;5106941;28;20694;-95
2022/10/07 12:07:39;;;;;;;34.83;16.58;;;;;;;21.46;61.66;99401.94;5099267;28;20036;-95
2022/10/07 12:10:20;;;;;;;30.80;16.50;;;;;;;21.38;62.33;99391.56;5099442;28;20044;-95